createdAt,value
2018-04-13T00:02:16.759Z,92991.54
2018-04-13T00:04:44.762Z,92984.98
2018-04-13T00:07:12.380Z,92987.19
2018-04-13T00:09:39.978Z,92989.27
2018-04-13T00:12:07.618Z,92996.50
2018-04-13T00:14:35.187Z,92979.17
2018-04-13T00:17:02.827Z,92975.03
2018-04-13T00:19:30.476Z,92974.52
2018-04-13T00:21:58.065Z,92982.13
2018-04-13T00:24:25.644Z,92981.71
2018-04-13T00:26:53.291Z,92982.50
2018-04-13T00:29:20.907Z,92981.87
2018-04-13T00:31:48.533Z,92973.43
2018-04-13T00:34:16.268Z,92970.45
2018-04-13T00:36:43.880Z,92971.02
2018-04-13T00:39:11.507Z,92972.95
2018-04-13T00:41:39.201Z,92973.75
2018-04-13T00:44:06.816Z,92971.25
2018-04-13T00:46:34.455Z,92992.80
2018-04-13T00:49:02.103Z,92986.16
2018-04-13T00:51:29.743Z,92978.26
2018-04-13T00:53:57.319Z,92980.36
2018-04-13T00:56:24.926Z,92970.59
2018-04-13T00:58:52.572Z,92971.77
2018-04-13T01:01:20.164Z,92966.27
2018-04-13T01:03:47.796Z,92959.19
2018-04-13T01:06:15.469Z,92960.64
2018-04-13T01:08:43.119Z,92963.83
2018-04-13T01:11:10.721Z,92952.77
2018-04-13T01:13:38.374Z,92949.51
2018-04-13T01:16:06.037Z,92943.23
2018-04-13T01:18:33.641Z,92943.73
2018-04-13T01:21:01.296Z,92942.16
2018-04-13T01:23:28.920Z,92946.57
2018-04-13T01:25:56.586Z,92938.06
2018-04-13T01:28:24.173Z,92937.76
2018-04-13T01:30:51.859Z,92932.84
2018-04-13T01:33:19.484Z,92932.83
2018-04-13T01:35:47.125Z,92934.69
2018-04-13T01:38:14.780Z,92926.19
2018-04-13T01:40:42.407Z,92926.06
2018-04-13T01:43:10.026Z,92926.80
2018-04-13T01:45:37.633Z,92923.07
2018-04-13T01:48:05.290Z,92928.36
2018-04-13T01:50:32.946Z,92930.20
2018-04-13T01:53:00.557Z,92936.47
2018-04-13T01:55:28.217Z,92946.06
2018-04-13T01:57:55.844Z,92946.89
2018-04-13T02:00:23.489Z,92949.94
2018-04-13T02:02:51.115Z,92945.84
2018-04-13T02:05:18.734Z,92947.48
2018-04-13T02:07:46.320Z,92944.02
2018-04-13T02:10:13.969Z,92943.02
2018-04-13T02:12:41.564Z,92934.56
2018-04-13T02:15:09.218Z,92942.72
2018-04-13T02:17:36.878Z,92946.50
2018-04-13T02:20:04.625Z,92954.16
2018-04-13T02:22:32.220Z,92957.02
2018-04-13T02:24:59.812Z,92956.27
2018-04-13T02:27:27.468Z,92957.45
2018-04-13T02:29:55.050Z,92958.05
2018-04-13T02:32:22.718Z,92953.45
2018-04-13T02:34:50.334Z,92960.61
2018-04-13T02:37:17.940Z,92965.25
2018-04-13T02:39:45.639Z,92960.59
2018-04-13T02:42:13.371Z,92965.67
2018-04-13T02:44:41.003Z,92966.45
2018-04-13T02:47:08.595Z,92964.88
2018-04-13T02:49:36.251Z,92969.16
2018-04-13T02:52:03.951Z,92975.94
2018-04-13T02:54:31.556Z,92971.25
2018-04-13T02:56:59.172Z,92972.17
2018-04-13T02:59:26.825Z,92977.80
2018-04-13T03:01:54.422Z,92974.63
2018-04-13T03:04:22.066Z,92966.53
2018-04-13T03:06:49.689Z,92975.75
2018-04-13T03:09:17.357Z,92973.14
2018-04-13T03:11:44.942Z,92982.41
2018-04-13T03:14:12.603Z,92988.66
2018-04-13T03:16:40.223Z,92983.83
2018-04-13T03:19:07.811Z,92979.63
2018-04-13T03:21:35.474Z,92984.44
2018-04-13T03:24:03.142Z,92982.05
2018-04-13T03:26:30.747Z,92984.35
2018-04-13T03:28:58.330Z,92976.70
2018-04-13T03:31:25.991Z,92962.80
2018-04-13T03:33:53.636Z,92958.14
2018-04-13T03:36:21.277Z,92971.44
2018-04-13T03:38:48.915Z,92970.27
2018-04-13T03:41:16.558Z,92972.16
2018-04-13T03:43:44.145Z,92979.48
2018-04-13T03:46:11.804Z,92985.00
2018-04-13T03:48:39.444Z,92976.30
2018-04-13T03:51:07.034Z,92975.38
2018-04-13T03:53:34.730Z,92970.30
2018-04-13T03:56:02.318Z,92971.74
2018-04-13T03:58:29.954Z,92975.61
2018-04-13T04:00:57.564Z,92983.16
2018-04-13T04:03:25.235Z,92995.53
2018-04-13T04:05:52.850Z,92997.23
2018-04-13T04:08:21.399Z,93001.04
2018-04-13T04:10:49.039Z,93007.44
2018-04-13T04:13:16.709Z,93006.95
2018-04-13T04:15:44.300Z,93006.07
2018-04-13T04:18:11.908Z,93010.33
2018-04-13T04:20:51.347Z,93016.19
2018-04-13T04:23:30.509Z,93025.86
2018-04-13T04:26:09.779Z,93035.83
2018-04-13T04:28:37.375Z,93054.66
2018-04-13T04:31:05.656Z,93055.30
2018-04-13T04:33:33.487Z,93052.30
2018-04-13T04:36:01.161Z,93050.91
2018-04-13T04:38:28.835Z,93059.61
2018-04-13T04:40:56.497Z,93063.05
2018-04-13T04:43:24.312Z,93061.45
2018-04-13T04:45:51.948Z,93060.51
2018-04-13T04:48:19.603Z,93064.05
2018-04-13T04:50:47.251Z,93062.88
2018-04-13T04:53:14.861Z,93067.25
2018-04-13T04:55:42.549Z,93060.88
2018-04-13T04:58:10.225Z,93067.64
2018-04-13T05:00:37.819Z,93075.06
2018-04-13T05:03:05.529Z,93080.29
2018-04-13T05:05:33.248Z,93077.19
2018-04-13T05:08:00.953Z,93088.56
2018-04-13T05:10:28.606Z,93082.16
2018-04-13T05:12:56.261Z,93083.67
2018-04-13T05:15:23.896Z,93089.31
2018-04-13T05:17:51.536Z,93102.28
2018-04-13T05:20:19.315Z,93107.11
2018-04-13T05:22:46.910Z,93116.11
2018-04-13T05:25:14.581Z,93115.62
2018-04-13T05:27:42.236Z,93111.64
2018-04-13T05:30:09.904Z,93121.69
2018-04-13T05:32:37.504Z,93119.70
2018-04-13T05:35:05.129Z,93126.58
2018-04-13T05:37:32.778Z,93131.50
2018-04-13T05:40:00.400Z,93139.16
2018-04-13T05:42:28.056Z,93137.36
2018-04-13T05:44:55.663Z,93136.22
2018-04-13T05:47:23.279Z,93135.19
2018-04-13T05:49:50.956Z,93135.09
2018-04-13T05:52:18.564Z,93141.61
2018-04-13T05:54:46.221Z,93141.35
2018-04-13T05:57:13.846Z,93151.02
2018-04-13T05:59:41.481Z,93150.64
2018-04-13T06:02:09.137Z,93152.16
2018-04-13T06:04:36.792Z,93156.62
2018-04-13T06:07:04.516Z,93153.30
2018-04-13T06:09:32.130Z,93147.95
2018-04-13T06:11:59.828Z,93148.61
2018-04-13T06:14:27.581Z,93156.07
2018-04-13T06:16:55.189Z,93163.08
2018-04-13T06:19:22.887Z,93159.44
2018-04-13T06:21:50.511Z,93166.42
2018-04-13T06:24:18.181Z,93175.83
2018-04-13T06:26:45.835Z,93179.13
2018-04-13T06:29:13.507Z,93176.83
2018-04-13T06:31:41.177Z,93183.06
2018-04-13T06:34:08.861Z,93175.78
2018-04-13T06:36:36.495Z,93178.02
2018-04-13T06:39:04.224Z,93183.25
2018-04-13T06:41:31.817Z,93184.50
2018-04-13T06:43:59.470Z,93190.78
2018-04-13T06:46:27.079Z,93188.41
2018-04-13T06:48:54.793Z,93193.58
2018-04-13T06:51:22.362Z,93189.03
2018-04-13T06:53:50.061Z,93183.83
2018-04-13T06:56:17.662Z,93188.05
2018-04-13T06:58:45.330Z,93189.75
2018-04-13T07:01:13.014Z,93180.02
2018-04-13T07:03:40.684Z,93179.67
2018-04-13T07:06:08.259Z,93181.20
2018-04-13T07:08:35.904Z,93182.45
2018-04-13T07:11:03.623Z,93194.20
2018-04-13T07:13:31.290Z,93201.96
2018-04-13T07:15:58.947Z,93196.70
2018-04-13T07:18:26.564Z,93202.15
2018-04-13T07:20:54.277Z,93203.02
2018-04-13T07:23:21.928Z,93206.39
2018-04-13T07:25:49.558Z,93210.08
2018-04-13T07:28:17.242Z,93216.47
2018-04-13T07:30:44.871Z,93217.98
2018-04-13T07:33:13.241Z,93222.97
2018-04-13T07:35:40.154Z,93223.95
2018-04-13T07:38:07.867Z,93224.30
2018-04-13T07:40:35.513Z,93227.29
2018-04-13T07:43:03.113Z,93223.78
2018-04-13T07:45:30.781Z,93234.48
2018-04-13T07:47:58.421Z,93233.18
2018-04-13T07:50:26.056Z,93234.95
2018-04-13T07:52:53.707Z,93237.17
2018-04-13T07:55:21.295Z,93233.81
2018-04-13T07:57:49.748Z,93230.34
2018-04-13T08:00:17.965Z,93235.56
2018-04-13T08:02:46.346Z,93240.75
2018-04-13T08:05:13.954Z,93239.09
2018-04-13T08:07:41.627Z,93239.71
2018-04-13T08:10:09.249Z,93235.88
2018-04-13T08:12:37.342Z,93233.86
2018-04-13T08:15:04.739Z,93240.11
2018-04-13T08:17:32.370Z,93246.95
2018-04-13T08:19:59.999Z,93246.68
2018-04-13T08:22:27.603Z,93246.52
2018-04-13T08:24:55.231Z,93250.49
2018-04-13T08:27:22.858Z,93256.33
2018-04-13T08:29:50.533Z,93262.91
2018-04-13T08:32:18.309Z,93258.16
2018-04-13T08:34:45.947Z,93255.69
2018-04-13T08:37:13.590Z,93260.83
2018-04-13T08:39:41.226Z,93260.44
2018-04-13T08:42:08.951Z,93254.08
2018-04-13T08:44:36.523Z,93258.92
2018-04-13T08:47:04.234Z,93260.17
2018-04-13T08:49:31.858Z,93269.46
2018-04-13T08:51:59.513Z,93273.80
2018-04-13T08:54:27.157Z,93268.30
2018-04-13T08:56:54.785Z,93270.87
2018-04-13T08:59:22.415Z,93272.72
2018-04-13T09:01:50.004Z,93280.86
2018-04-13T09:04:17.646Z,93281.83
2018-04-13T09:06:45.299Z,93283.66
2018-04-13T09:09:12.892Z,93286.76
2018-04-13T09:11:40.551Z,93299.51
2018-04-13T09:14:08.172Z,93298.51
2018-04-13T09:16:35.819Z,93289.94
2018-04-13T09:19:03.450Z,93295.36
2018-04-13T09:21:31.083Z,93299.31
2018-04-13T09:23:58.795Z,93295.55
2018-04-13T09:26:26.462Z,93299.38
2018-04-13T09:28:54.185Z,93292.94
2018-04-13T09:31:21.829Z,93309.17
2018-04-13T09:33:49.479Z,93299.58
2018-04-13T09:36:17.082Z,93301.87
2018-04-13T09:38:44.706Z,93312.00
2018-04-13T09:41:12.421Z,93310.03
2018-04-13T09:43:40.053Z,93309.04
2018-04-13T09:46:08.346Z,93314.70
2018-04-13T09:48:36.043Z,93313.30
2018-04-13T09:51:03.835Z,93317.07
2018-04-13T09:53:31.486Z,93317.93
2018-04-13T09:55:59.359Z,93308.70
2018-04-13T09:58:26.974Z,93314.32
2018-04-13T10:01:00.549Z,93319.44
2018-04-13T10:03:28.341Z,93340.30
2018-04-13T10:05:57.182Z,93338.08
2018-04-13T10:08:24.950Z,93324.76
2018-04-13T10:10:52.608Z,93328.97
2018-04-13T10:13:20.300Z,93334.30
2018-04-13T10:15:48.006Z,93336.48
2018-04-13T10:18:15.636Z,93320.48
2018-04-13T10:20:43.312Z,93321.84
2018-04-13T10:23:10.940Z,93327.15
2018-04-13T10:25:38.597Z,93327.64
2018-04-13T10:28:06.261Z,93332.06
2018-04-13T10:30:33.861Z,93335.59
2018-04-13T10:33:01.529Z,93335.90
2018-04-13T10:35:29.194Z,93329.30
2018-04-13T10:37:56.849Z,93343.05
2018-04-13T10:40:24.484Z,93330.28
2018-04-13T10:42:52.126Z,93334.20
2018-04-13T10:45:19.745Z,93333.18
2018-04-13T10:47:47.397Z,93332.50
2018-04-13T10:50:15.008Z,93345.40
2018-04-13T10:52:42.674Z,93342.03
2018-04-13T10:55:10.257Z,93350.59
2018-04-13T10:57:38.042Z,93348.98
2018-04-13T11:00:05.671Z,93358.27
2018-04-13T11:02:33.283Z,93356.93
2018-04-13T11:05:00.992Z,93356.84
2018-04-13T11:07:28.639Z,93367.61
2018-04-13T11:09:56.273Z,93366.48
2018-04-13T11:12:23.977Z,93366.43
2018-04-13T11:14:51.598Z,93372.26
2018-04-13T11:17:19.238Z,93375.34
2018-04-13T11:19:47.010Z,93409.36
2018-04-13T11:22:14.669Z,93382.56
2018-04-13T11:24:42.320Z,93395.75
2018-04-13T11:27:09.931Z,93396.03
2018-04-13T11:29:37.631Z,93402.84
2018-04-13T11:32:06.390Z,93408.70
2018-04-13T11:34:34.103Z,93402.16
2018-04-13T11:37:01.796Z,93413.39
2018-04-13T11:39:29.508Z,93415.70
2018-04-13T11:41:57.116Z,93427.66
2018-04-13T11:44:24.829Z,93418.72
2018-04-13T11:46:52.534Z,93429.38
2018-04-13T11:49:20.242Z,93442.52
2018-04-13T11:51:47.949Z,93447.38
2018-04-13T11:54:15.607Z,93430.29
2018-04-13T11:56:43.276Z,93440.77
2018-04-13T11:59:10.968Z,93454.70
2018-04-13T12:01:38.709Z,93451.18
2018-04-13T12:04:06.399Z,93447.41
2018-04-13T12:06:34.076Z,93448.00
2018-04-13T12:09:02.437Z,93453.89
2018-04-13T12:11:30.051Z,93454.89
2018-04-13T12:13:57.769Z,93459.81
2018-04-13T12:16:25.548Z,93469.95
2018-04-13T12:18:53.257Z,93465.62
2018-04-13T12:21:20.895Z,93458.50
2018-04-13T12:23:48.587Z,93457.03
2018-04-13T12:26:16.240Z,93452.64
2018-04-13T12:28:43.947Z,93464.61
2018-04-13T12:31:11.611Z,93463.80
2018-04-13T12:33:39.357Z,93465.95
2018-04-13T12:36:07.202Z,93476.80
2018-04-13T12:38:35.179Z,93471.52
2018-04-13T12:41:02.833Z,93468.04
2018-04-13T12:43:30.540Z,93465.85
2018-04-13T12:45:58.244Z,93465.47
2018-04-13T12:48:25.966Z,93473.69
2018-04-13T12:50:53.679Z,93475.35
2018-04-13T12:53:21.432Z,93482.68
2018-04-13T12:55:49.170Z,93472.00
2018-04-13T12:58:16.768Z,93485.32
2018-04-13T13:00:44.411Z,93480.27
2018-04-13T13:03:12.019Z,93482.35
2018-04-13T13:05:39.735Z,93473.80
2018-04-13T13:08:07.564Z,93485.05
2018-04-13T13:10:35.207Z,93479.37
2018-04-13T13:13:02.935Z,93475.27
2018-04-13T13:15:30.556Z,93472.73
2018-04-13T13:17:58.235Z,93471.14
2018-04-13T13:20:25.949Z,93476.19
2018-04-13T13:22:53.637Z,93475.11
2018-04-13T13:25:21.375Z,93474.88
2018-04-13T13:27:49.011Z,93477.47
2018-04-13T13:30:17.860Z,93474.60
2018-04-13T13:32:45.573Z,93487.66
2018-04-13T13:35:13.596Z,93482.95
2018-04-13T13:37:41.269Z,93489.98
2018-04-13T13:40:08.905Z,93492.30
2018-04-13T13:42:36.697Z,93501.12
2018-04-13T13:45:04.338Z,93497.51
2018-04-13T13:47:32.014Z,93496.58
2018-04-13T13:49:59.623Z,93507.76
2018-04-13T13:52:27.283Z,93521.83
2018-04-13T13:54:54.986Z,93522.44
2018-04-13T13:57:22.635Z,93520.49
2018-04-13T13:59:51.488Z,93527.98
2018-04-13T14:02:19.122Z,93521.24
2018-04-13T14:04:46.790Z,93526.00
2018-04-13T14:07:15.123Z,93521.94
2018-04-13T14:09:42.771Z,93530.51
2018-04-13T14:12:10.436Z,93521.28
2018-04-13T14:14:38.039Z,93525.62
2018-04-13T14:17:05.694Z,93537.97
2018-04-13T14:19:33.357Z,93541.51
2018-04-13T14:22:01.486Z,93548.28
2018-04-13T14:24:29.132Z,93547.28
2018-04-13T14:26:56.819Z,93548.38
2018-04-13T14:29:24.690Z,93548.20
2018-04-13T14:31:52.705Z,93554.83
2018-04-13T14:34:20.394Z,93561.73
2018-04-13T14:36:48.039Z,93553.37
2018-04-13T14:39:15.722Z,93549.64
2018-04-13T14:41:44.054Z,93553.01
2018-04-13T14:44:11.705Z,93548.81
2018-04-13T14:46:39.383Z,93554.48
2018-04-13T14:49:07.001Z,93557.98
2018-04-13T14:51:34.637Z,93565.05
2018-04-13T14:54:02.290Z,93568.00
2018-04-13T14:56:29.902Z,93571.84
2018-04-13T14:58:57.567Z,93568.91
2018-04-13T15:01:25.499Z,93574.06
2018-04-13T15:03:53.132Z,93576.91
2018-04-13T15:06:20.728Z,93583.30
2018-04-13T15:08:48.397Z,93585.81
2018-04-13T15:11:16.943Z,93586.34
2018-04-13T15:13:44.599Z,93590.24
2018-04-13T15:16:12.564Z,93590.34
2018-04-13T15:18:40.212Z,93593.06
2018-04-13T15:21:08.368Z,93593.84
2018-04-13T15:23:36.030Z,93595.75
2018-04-13T15:26:03.711Z,93604.36
2018-04-13T15:28:31.382Z,93607.74
2018-04-13T15:30:59.092Z,93604.16
2018-04-13T15:33:26.688Z,93612.28
2018-04-13T15:35:54.316Z,93616.14
2018-04-13T15:38:21.975Z,93608.08
2018-04-13T15:40:49.619Z,93609.81
2018-04-13T15:43:17.235Z,93607.47
2018-04-13T15:45:44.905Z,93608.41
2018-04-13T15:48:12.543Z,93614.85
2018-04-13T15:50:40.196Z,93615.06
2018-04-13T15:53:07.895Z,93617.88
2018-04-13T15:55:35.499Z,93627.19
2018-04-13T15:58:03.140Z,93623.02
2018-04-13T16:00:30.774Z,93627.75
2018-04-13T16:02:58.495Z,93627.35
2018-04-13T16:05:26.306Z,93631.05
2018-04-13T16:07:53.968Z,93635.73
2018-04-13T16:10:21.680Z,93635.63
2018-04-13T16:12:49.480Z,93636.64
2018-04-13T16:15:17.097Z,93645.59
2018-04-13T16:17:44.779Z,93638.05
2018-04-13T16:20:12.656Z,93639.81
2018-04-13T16:22:41.511Z,93644.97
2018-04-13T16:25:09.220Z,93655.84
2018-04-13T16:27:37.104Z,93654.56
2018-04-13T16:30:05.000Z,93658.75
2018-04-13T16:32:32.632Z,93666.08
2018-04-13T16:35:01.491Z,93675.78
2018-04-13T16:37:29.138Z,93685.02
2018-04-13T16:39:56.795Z,93683.58
2018-04-13T16:42:24.399Z,93686.80
2018-04-13T16:44:53.062Z,93692.98
2018-04-13T16:47:21.807Z,93695.21
2018-04-13T16:49:49.672Z,93696.39
2018-04-13T16:52:17.334Z,93705.31
2018-04-13T16:54:45.026Z,93704.77
2018-04-13T16:57:12.685Z,93709.44
2018-04-13T16:59:40.330Z,93721.51
2018-04-13T17:02:08.033Z,93721.74
2018-04-13T17:04:35.662Z,93721.47
2018-04-13T17:07:03.314Z,93728.67
2018-04-13T17:09:31.075Z,93732.73
2018-04-13T17:11:58.806Z,93737.16
2018-04-13T17:14:26.806Z,93741.67
2018-04-13T17:16:55.289Z,93743.22
2018-04-13T17:19:23.197Z,93745.86
2018-04-13T17:21:50.919Z,93755.88
2018-04-13T17:24:18.670Z,93764.02
2018-04-13T17:26:46.571Z,93763.30
2018-04-13T17:29:14.416Z,93771.26
2018-04-13T17:31:43.104Z,93782.80
2018-04-13T17:34:11.022Z,93780.94
2018-04-13T17:36:38.735Z,93784.06
2018-04-13T17:39:06.653Z,93791.11
2018-04-13T17:41:34.929Z,93791.27
2018-04-13T17:44:02.792Z,93791.06
2018-04-13T17:46:30.512Z,93802.52
2018-04-13T17:48:58.182Z,93793.96
2018-04-13T17:51:26.587Z,93819.90
2018-04-13T17:53:54.505Z,93822.66
2018-04-13T17:56:22.405Z,93838.58
2018-04-13T17:58:50.240Z,93846.59
2018-04-13T18:01:18.110Z,93845.36
2018-04-13T18:03:45.990Z,93861.23
2018-04-13T18:06:13.993Z,93867.25
2018-04-13T18:08:42.033Z,93873.61
2018-04-13T18:11:10.107Z,93883.53
2018-04-13T18:13:37.969Z,93886.97
2018-04-13T18:16:05.759Z,93899.16
2018-04-13T18:18:34.017Z,93893.98
2018-04-13T18:21:02.530Z,93909.11
2018-04-13T18:23:30.363Z,93914.16
2018-04-13T18:25:58.124Z,93919.42
2018-04-13T18:28:25.897Z,93923.80
2018-04-13T18:30:54.361Z,93932.96
2018-04-13T18:33:22.142Z,93934.89
2018-04-13T18:35:49.940Z,93946.95
2018-04-13T18:38:17.618Z,93943.98
2018-04-13T18:40:45.459Z,93957.20
2018-04-13T18:43:13.077Z,93961.65
2018-04-13T18:45:41.102Z,93965.91
2018-04-13T18:48:09.189Z,93974.89
2018-04-13T18:50:37.405Z,93985.40
2018-04-13T18:53:05.450Z,93992.70
2018-04-13T18:55:33.075Z,94002.64
2018-04-13T18:58:00.804Z,94010.57
2018-04-13T19:00:28.483Z,94011.64
2018-04-13T19:02:56.156Z,94022.62
2018-04-13T19:05:23.892Z,94024.82
2018-04-13T19:07:51.660Z,94035.69
2018-04-13T19:10:19.359Z,94036.98
2018-04-13T19:12:47.107Z,94048.98
2018-04-13T19:15:16.046Z,94054.59
2018-04-13T19:17:43.725Z,94064.82
2018-04-13T19:20:11.381Z,94072.20
2018-04-13T19:22:39.066Z,94075.92
2018-04-13T19:25:06.710Z,94079.39
2018-04-13T19:27:34.408Z,94084.34
2018-04-13T19:30:02.000Z,94080.50
2018-04-13T19:32:29.653Z,94089.32
2018-04-13T19:34:57.362Z,94091.92
2018-04-13T19:37:25.976Z,94094.46
2018-04-13T19:39:53.713Z,94094.97
2018-04-13T19:42:21.360Z,94091.14
2018-04-13T19:44:49.018Z,94109.07
2018-04-13T19:47:16.663Z,94108.10
2018-04-13T19:49:44.370Z,94117.65
2018-04-13T19:52:12.045Z,94121.78
2018-04-13T19:54:39.725Z,94120.38
2018-04-13T19:57:08.225Z,94121.72
2018-04-13T19:59:35.896Z,94131.56
2018-04-13T20:02:04.053Z,94138.47
2018-04-13T20:04:32.771Z,94140.66
2018-04-13T20:07:00.441Z,94139.30
2018-04-13T20:09:28.080Z,94143.95
2018-04-13T20:11:58.450Z,94149.25
2018-04-13T20:14:26.643Z,94154.70
2018-04-13T20:16:54.307Z,94157.66
2018-04-13T20:19:21.967Z,94155.74
2018-04-13T20:21:49.625Z,94157.70
2018-04-13T20:24:17.277Z,94158.95
2018-04-13T20:26:45.025Z,94163.77
2018-04-13T20:29:12.715Z,94177.88
2018-04-13T20:31:40.461Z,94167.63
2018-04-13T20:34:08.163Z,94168.01
2018-04-13T20:36:36.468Z,94169.65
2018-04-13T20:39:04.261Z,94178.46
2018-04-13T20:41:31.878Z,94188.50
2018-04-13T20:43:59.552Z,94183.70
2018-04-13T20:46:27.187Z,94193.61
2018-04-13T20:48:54.886Z,94191.77
2018-04-13T20:51:22.703Z,94193.94
2018-04-13T20:53:50.357Z,94204.30
2018-04-13T20:56:18.010Z,94208.56
2018-04-13T20:58:46.317Z,94206.13
2018-04-13T21:01:13.970Z,94202.44
2018-04-13T21:03:41.644Z,94213.54
2018-04-13T21:06:09.471Z,94211.76
2018-04-13T21:08:37.354Z,94216.30
2018-04-13T21:11:04.996Z,94218.16
2018-04-13T21:13:32.618Z,94227.00
2018-04-13T21:16:00.235Z,94230.95
2018-04-13T21:18:27.848Z,94234.55
2018-04-13T21:20:55.508Z,94239.66
2018-04-13T21:23:23.171Z,94245.95
2018-04-13T21:25:50.824Z,94243.86
2018-04-13T21:28:18.573Z,94245.72
2018-04-13T21:30:46.295Z,94248.25
2018-04-13T21:33:13.909Z,94251.84
2018-04-13T21:35:42.330Z,94255.44
2018-04-13T21:38:09.939Z,94256.91
2018-04-13T21:40:37.638Z,94263.73
2018-04-13T21:43:05.242Z,94261.14
2018-04-13T21:45:32.963Z,94268.23
2018-04-13T21:48:00.663Z,94268.92
2018-04-13T21:50:28.296Z,94271.48
2018-04-13T21:52:55.964Z,94260.20
2018-04-13T21:55:23.604Z,94266.04
2018-04-13T21:57:51.264Z,94274.86
2018-04-13T22:00:18.937Z,94275.45
2018-04-13T22:02:46.612Z,94270.99
2018-04-13T22:05:14.251Z,94278.56
2018-04-13T22:07:41.884Z,94286.16
2018-04-13T22:10:09.556Z,94288.72
2018-04-13T22:12:49.092Z,94294.95
2018-04-13T22:15:17.652Z,94296.40
2018-04-13T22:17:45.363Z,94299.23
2018-04-13T22:20:13.020Z,94302.67
2018-04-13T22:22:40.642Z,94313.79
2018-04-13T22:25:08.246Z,94318.02
2018-04-13T22:27:35.892Z,94320.97
2018-04-13T22:30:03.575Z,94319.50
2018-04-13T22:32:31.186Z,94326.08
2018-04-13T22:34:58.901Z,94335.64
2018-04-13T22:37:26.604Z,94335.43
2018-04-13T22:39:54.325Z,94346.69
2018-04-13T22:42:21.993Z,94345.19
2018-04-13T22:44:49.614Z,94340.25
2018-04-13T22:47:17.267Z,94347.09
2018-04-13T22:49:44.919Z,94351.48
2018-04-13T22:52:12.611Z,94349.17
2018-04-13T22:54:40.235Z,94348.80
2018-04-13T22:57:07.888Z,94348.31
2018-04-13T22:59:35.549Z,94353.27
2018-04-13T23:02:03.157Z,94354.25
2018-04-13T23:04:30.861Z,94355.05
2018-04-13T23:06:58.502Z,94360.33
2018-04-13T23:09:26.181Z,94364.91
2018-04-13T23:11:53.895Z,94371.38
2018-04-13T23:14:22.064Z,94373.06
2018-04-13T23:16:49.710Z,94369.87
2018-04-13T23:19:17.300Z,94374.92
2018-04-13T23:21:45.600Z,94372.84
2018-04-13T23:24:13.272Z,94380.42
2018-04-13T23:26:40.924Z,94383.45
2018-04-13T23:29:08.583Z,94388.27
2018-04-13T23:31:36.253Z,94387.70
2018-04-13T23:34:04.876Z,94388.38
2018-04-13T23:36:32.666Z,94398.16
2018-04-13T23:39:00.341Z,94398.47
2018-04-13T23:41:27.981Z,94399.36
2018-04-13T23:43:55.662Z,94407.73
2018-04-13T23:46:24.261Z,94401.95
2018-04-13T23:48:51.907Z,94405.89
2018-04-13T23:51:19.603Z,94412.54
2018-04-13T23:53:47.907Z,94414.12
2018-04-13T23:56:15.750Z,94419.83
2018-04-13T23:58:44.541Z,94414.70
